createdAt,value
2023-04-08T00:02:54.584Z,5.00
2023-04-08T00:07:55.929Z,4.68
2023-04-08T00:12:57.271Z,5.10
2023-04-08T00:17:58.639Z,4.55
2023-04-08T00:22:59.905Z,4.63
2023-04-08T00:28:01.282Z,4.63
2023-04-08T00:33:02.628Z,4.90
2023-04-08T00:38:07.802Z,6.90
2023-04-08T00:43:09.181Z,5.18
2023-04-08T00:48:10.541Z,4.88
2023-04-08T00:53:13.240Z,5.43
2023-04-08T00:58:14.593Z,5.63
2023-04-08T01:03:27.121Z,5.70
2023-04-08T01:08:29.919Z,5.90
2023-04-08T01:13:34.411Z,5.80
2023-04-08T01:18:36.469Z,5.30
2023-04-08T01:23:44.175Z,5.55
2023-04-08T01:28:45.610Z,13.53
2023-04-08T01:33:47.845Z,5.57
2023-04-08T01:38:49.457Z,6.25
2023-04-08T01:43:51.914Z,5.60
2023-04-08T01:48:54.333Z,6.07
2023-04-08T01:53:55.640Z,5.57
2023-04-08T01:58:58.687Z,5.25
2023-04-08T02:04:00.522Z,5.50
2023-04-08T02:09:02.075Z,5.20
2023-04-08T02:14:03.421Z,4.90
2023-04-08T02:19:28.067Z,4.87
2023-04-08T02:24:29.693Z,4.60
2023-04-08T02:29:31.977Z,4.40
2023-04-08T02:34:34.839Z,4.63
2023-04-08T02:39:36.221Z,4.47
2023-04-08T02:44:37.482Z,4.80
2023-04-08T02:49:38.723Z,4.90
2023-04-08T02:54:40.123Z,4.93
2023-04-08T02:59:41.396Z,5.20
2023-04-08T03:04:42.738Z,4.80
2023-04-08T03:09:44.053Z,5.13
2023-04-08T03:14:45.373Z,14.15
2023-04-08T03:19:46.649Z,13.43
2023-04-08T03:24:47.904Z,9.53
2023-04-08T03:29:49.280Z,9.15
2023-04-08T03:34:51.272Z,5.53
2023-04-08T03:39:53.474Z,5.30
2023-04-08T03:44:54.767Z,5.90
2023-04-08T03:49:56.044Z,6.13
2023-04-08T03:54:57.354Z,6.18
2023-04-08T03:59:59.177Z,6.27
2023-04-08T04:05:00.595Z,6.28
2023-04-08T04:10:02.079Z,6.55
2023-04-08T04:15:03.741Z,6.30
2023-04-08T04:20:06.356Z,7.30
2023-04-08T04:25:08.299Z,5.80
2023-04-08T04:30:10.403Z,5.60
2023-04-08T04:35:12.461Z,8.75
2023-04-08T04:40:13.773Z,6.93
2023-04-08T04:45:15.501Z,7.35
2023-04-08T04:50:18.063Z,6.57
2023-04-08T04:55:19.387Z,9.02
2023-04-08T05:00:20.769Z,7.95
2023-04-08T05:05:22.102Z,7.00
2023-04-08T05:10:23.416Z,9.02
2023-04-08T05:15:24.689Z,13.20
2023-04-08T05:20:25.979Z,11.90
2023-04-08T05:25:27.233Z,7.25
2023-04-08T05:30:28.797Z,8.67
2023-04-08T05:35:30.189Z,12.25
2023-04-08T05:40:31.457Z,8.37
2023-04-08T05:45:32.787Z,6.88
2023-04-08T05:50:35.220Z,6.90
2023-04-08T05:55:36.820Z,7.10
2023-04-08T06:00:38.127Z,7.47
2023-04-08T06:05:39.422Z,9.13
2023-04-08T06:10:40.738Z,7.97
2023-04-08T06:15:45.172Z,9.13
2023-04-08T06:20:46.537Z,7.90
2023-04-08T06:25:47.805Z,8.68
2023-04-08T06:30:49.064Z,8.20
2023-04-08T06:35:50.541Z,8.65
2023-04-08T06:40:51.899Z,8.68
2023-04-08T06:45:53.299Z,8.50
2023-04-08T06:50:57.890Z,8.27
2023-04-08T06:55:59.504Z,8.63
2023-04-08T07:01:01.420Z,8.68
2023-04-08T07:06:04.474Z,7.93
2023-04-08T07:11:05.832Z,8.13
2023-04-08T07:16:07.339Z,7.85
2023-04-08T07:21:08.632Z,7.67
2023-04-08T07:26:09.961Z,7.03
2023-04-08T07:31:16.118Z,6.65
2023-04-08T07:36:18.377Z,7.30
2023-04-08T07:41:19.869Z,6.32
2023-04-08T07:46:21.321Z,6.17
2023-04-08T07:51:23.060Z,6.13
2023-04-08T07:56:24.336Z,6.80
2023-04-08T08:01:27.799Z,6.00
2023-04-08T08:06:29.312Z,7.22
2023-04-08T08:11:30.789Z,6.82
2023-04-08T08:16:33.602Z,6.90
2023-04-08T08:21:37.854Z,6.95
2023-04-08T08:26:39.239Z,7.73
2023-04-08T08:31:40.617Z,8.23
2023-04-08T08:36:41.960Z,8.23
2023-04-08T08:41:43.289Z,7.90
2023-04-08T08:46:44.881Z,7.90
2023-04-08T08:51:46.945Z,8.23
2023-04-08T08:56:49.021Z,7.70
2023-04-08T09:01:50.670Z,8.80
2023-04-08T09:07:11.238Z,7.95
2023-04-08T09:12:13.985Z,7.35
2023-04-08T09:17:15.896Z,7.97
2023-04-08T09:22:17.494Z,8.13
2023-04-08T09:27:33.406Z,8.00
2023-04-08T09:32:47.609Z,7.30
2023-04-08T09:37:49.594Z,7.95
2023-04-08T09:42:53.521Z,6.75
2023-04-08T09:48:01.365Z,7.03
2023-04-08T09:53:23.373Z,6.53
2023-04-08T09:58:28.307Z,6.85
2023-04-08T10:03:32.777Z,6.10
2023-04-08T10:08:34.693Z,6.30
2023-04-08T10:13:36.223Z,6.32
2023-04-08T10:18:38.121Z,6.80
2023-04-08T10:23:56.386Z,6.77
2023-04-08T10:29:17.775Z,6.43
2023-04-08T10:34:24.702Z,6.40
2023-04-08T10:39:29.431Z,6.47
2023-04-08T10:44:33.651Z,6.20
2023-04-08T10:49:35.019Z,6.93
2023-04-08T10:54:36.748Z,6.70
2023-04-08T10:59:39.736Z,7.22
2023-04-08T11:04:44.613Z,6.77
2023-04-08T11:09:45.918Z,7.70
2023-04-08T11:14:49.568Z,7.15
2023-04-08T11:19:52.423Z,6.53
2023-04-08T11:24:53.998Z,7.30
2023-04-08T11:29:56.200Z,7.45
2023-04-08T11:34:59.846Z,8.10
2023-04-08T11:40:01.294Z,7.30
2023-04-08T11:45:13.466Z,6.82
2023-04-08T11:50:24.795Z,6.90
2023-04-08T11:55:30.120Z,6.93
2023-04-08T12:00:31.405Z,6.90
2023-04-08T12:05:32.939Z,7.53
2023-04-08T12:10:34.238Z,7.07
2023-04-08T12:15:35.553Z,7.78
2023-04-08T12:20:36.832Z,6.87
2023-04-08T12:25:38.388Z,7.00
2023-04-08T12:30:39.658Z,7.25
2023-04-08T12:35:41.175Z,6.73
2023-04-08T12:40:42.467Z,7.67
2023-04-08T12:45:44.292Z,7.63
2023-04-08T12:50:45.596Z,7.13
2023-04-08T12:55:48.725Z,7.50
2023-04-08T13:00:51.001Z,7.65
2023-04-08T13:05:52.422Z,7.40
2023-04-08T13:10:54.591Z,7.57
2023-04-08T13:15:56.762Z,7.78
2023-04-08T13:20:58.603Z,7.20
2023-04-08T13:26:00.140Z,7.63
2023-04-08T13:31:01.512Z,7.10
2023-04-08T13:36:02.863Z,7.60
2023-04-08T13:41:04.307Z,6.90
2023-04-08T13:46:05.794Z,6.32
2023-04-08T13:51:07.377Z,5.97
2023-04-08T13:56:08.801Z,6.30
2023-04-08T14:01:10.122Z,5.70
2023-04-08T14:06:11.528Z,5.67
2023-04-08T14:11:12.962Z,5.50
2023-04-08T14:16:14.291Z,5.38
2023-04-08T14:21:18.130Z,4.80
2023-04-08T14:26:19.460Z,4.97
2023-04-08T14:31:21.129Z,4.95
2023-04-08T14:36:24.211Z,4.63
2023-04-08T14:41:28.309Z,5.80
2023-04-08T14:46:29.993Z,4.83
2023-04-08T14:51:31.830Z,5.87
2023-04-08T14:56:35.246Z,5.70
2023-04-08T15:01:36.733Z,5.30
2023-04-08T15:06:39.012Z,5.23
2023-04-08T15:11:40.317Z,4.75
2023-04-08T15:16:41.596Z,5.37
2023-04-08T15:21:42.865Z,5.70
2023-04-08T15:26:44.731Z,5.90
2023-04-08T15:31:46.280Z,6.57
2023-04-08T15:36:47.693Z,6.10
2023-04-08T15:41:49.063Z,6.78
2023-04-08T15:46:50.435Z,8.33
2023-04-08T15:51:53.558Z,5.63
2023-04-08T15:56:54.862Z,5.97
2023-04-08T16:01:56.534Z,5.40
2023-04-08T16:06:58.036Z,4.90
2023-04-08T16:11:59.904Z,5.70
2023-04-08T16:17:01.324Z,11.63
2023-04-08T16:22:02.826Z,9.05
2023-04-08T16:27:04.547Z,8.60
2023-04-08T16:32:06.534Z,4.90
2023-04-08T16:37:07.860Z,6.90
2023-04-08T16:42:09.443Z,7.10
2023-04-08T16:47:10.802Z,4.30
2023-04-08T16:52:12.107Z,5.18
2023-04-08T16:57:13.456Z,6.30
2023-04-08T17:02:14.906Z,5.20
2023-04-08T17:07:16.940Z,5.20
2023-04-08T17:12:18.444Z,4.70
2023-04-08T17:17:19.760Z,6.07
2023-04-08T17:22:21.493Z,5.23
2023-04-08T17:27:23.297Z,4.00
2023-04-08T17:32:25.166Z,4.00
2023-04-08T17:37:26.502Z,4.40
2023-04-08T17:42:27.885Z,3.63
2023-04-08T17:47:29.214Z,3.85
2023-04-08T17:52:30.582Z,3.63
2023-04-08T17:57:32.325Z,3.95
2023-04-08T18:02:33.899Z,4.77
2023-04-08T18:07:36.022Z,4.13
2023-04-08T18:12:37.488Z,4.22
2023-04-08T18:17:38.803Z,3.60
2023-04-08T18:22:40.125Z,4.13
2023-04-08T18:27:41.394Z,5.75
2023-04-08T18:32:42.760Z,4.40
2023-04-08T18:37:44.106Z,4.07
2023-04-08T18:42:45.438Z,4.43
2023-04-08T18:47:46.736Z,4.20
2023-04-08T18:52:48.101Z,4.47
2023-04-08T18:57:49.397Z,4.53
2023-04-08T19:02:51.000Z,6.20
2023-04-08T19:07:53.060Z,5.33
2023-04-08T19:12:54.357Z,5.22
2023-04-08T19:17:56.433Z,5.00
2023-04-08T19:22:57.982Z,5.10
2023-04-08T19:27:59.374Z,4.60
2023-04-08T19:33:01.515Z,4.40
2023-04-08T19:38:03.396Z,4.57
2023-04-08T19:43:05.052Z,4.07
2023-04-08T19:48:07.530Z,3.57
2023-04-08T19:53:08.817Z,4.20
2023-04-08T19:58:10.750Z,4.67
2023-04-08T20:03:13.851Z,4.68
2023-04-08T20:08:15.705Z,4.40
2023-04-08T20:13:17.076Z,4.20
2023-04-08T20:18:18.508Z,4.22
2023-04-08T20:23:20.096Z,4.43
2023-04-08T20:28:21.476Z,4.05
2023-04-08T20:33:22.797Z,3.88
2023-04-08T20:38:24.880Z,3.60
2023-04-08T20:43:26.214Z,4.20
2023-04-08T20:48:29.402Z,4.40
2023-04-08T20:53:31.495Z,3.55
2023-04-08T20:58:32.798Z,4.90
2023-04-08T21:03:34.310Z,10.07
2023-04-08T21:08:35.671Z,3.20
2023-04-08T21:13:37.086Z,3.83
2023-04-08T21:18:39.118Z,4.53
2023-04-08T21:23:40.438Z,3.80
2023-04-08T21:28:41.817Z,4.00
2023-04-08T21:33:43.203Z,5.10
2023-04-08T21:38:44.599Z,4.43
2023-04-08T21:43:46.838Z,5.25
2023-04-08T21:48:48.163Z,5.43
2023-04-08T21:53:50.180Z,4.03
2023-04-08T21:58:52.360Z,4.72
2023-04-08T22:03:55.358Z,4.27
2023-04-08T22:08:56.912Z,4.60
2023-04-08T22:13:58.272Z,4.60
2023-04-08T22:18:59.574Z,4.30
2023-04-08T22:24:00.998Z,4.60
2023-04-08T22:29:02.306Z,4.27
2023-04-08T22:34:03.580Z,4.63
2023-04-08T22:39:04.917Z,4.75
2023-04-08T22:44:06.384Z,4.83
2023-04-08T22:49:07.645Z,4.38
2023-04-08T22:54:08.992Z,4.60
2023-04-08T22:59:10.377Z,4.05
2023-04-08T23:04:11.703Z,4.47
2023-04-08T23:09:13.025Z,4.87
2023-04-08T23:14:14.586Z,4.78
2023-04-08T23:19:15.967Z,4.50
2023-04-08T23:24:17.267Z,4.30
2023-04-08T23:29:18.808Z,4.55
2023-04-08T23:34:20.222Z,4.00
2023-04-08T23:39:21.543Z,4.38
2023-04-08T23:44:22.937Z,4.53
2023-04-08T23:49:24.210Z,4.45
2023-04-08T23:54:25.699Z,4.70
2023-04-08T23:59:28.765Z,4.13
